Time;durP1;ratioP1;P1;durP2;ratioP2;P2;SDS_P1;SDS_P2;PMS_P1;PMS_P2;Temp;Humidity;BMP_temperature;BMP_pressure;BME280_temperature;BME280_humidity;BME280_pressure;Samples;Min_cycle;Max_cycle;Signal;HPM_P1;HPM_P2
2021/01/04 00:02:27;;;;;;;6.93;4.57;;;4.60;99.90;;;;;;5091243;28;20197;-84
2021/01/04 00:05:30;;;;;;;7.80;5.07;;;4.70;99.90;;;;;;5091811;28;20197;-85
2021/01/04 00:08:37;;;;;;;12.40;5.43;;;4.70;99.90;;;;;;5048906;28;20190;-83
2021/01/04 00:11:37;;;;;;;11.93;5.13;;;4.60;99.90;;;;;;5001796;28;20631;-86
2021/01/04 00:14:13;;;;;;;9.67;4.87;;;4.70;99.90;;;;;;5089299;28;20208;-84
2021/01/04 00:16:48;;;;;;;9.67;5.47;;;4.60;99.90;;;;;;5091890;28;20192;-86
2021/01/04 00:19:20;;;;;;;11.87;6.20;;;4.70;99.90;;;;;;5090851;28;20195;-84
2021/01/04 00:21:56;;;;;;;9.30;5.00;;;4.70;99.90;;;;;;5091488;28;20199;-82
2021/01/04 00:24:33;;;;;;;10.50;4.50;;;4.60;99.90;;;;;;5090749;28;20559;-83
2021/01/04 00:27:07;;;;;;;9.33;5.27;;;4.70;99.90;;;;;;5090727;28;20216;-84
2021/01/04 00:29:33;;;;;;;9.07;4.30;;;4.70;99.90;;;;;;5090257;28;20209;-80
2021/01/04 00:32:06;;;;;;;9.50;5.53;;;4.70;99.90;;;;;;5090356;28;20817;-82
2021/01/04 00:34:43;;;;;;;9.10;4.93;;;4.60;99.90;;;;;;5089664;28;20331;-84
2021/01/04 00:37:42;;;;;;;9.33;4.50;;;4.70;99.90;;;;;;5091203;28;20220;-85
2021/01/04 00:40:15;;;;;;;8.77;4.93;;;4.70;99.90;;;;;;5073096;28;20287;-83
2021/01/04 00:42:46;;;;;;;9.03;5.60;;;4.60;99.90;;;;;;5090984;28;20197;-85
2021/01/04 00:45:17;;;;;;;9.43;5.20;;;4.60;99.90;;;;;;5091015;28;20775;-85
2021/01/04 00:47:58;;;;;;;7.83;5.10;;;4.70;99.90;;;;;;5090366;28;20274;-82
2021/01/04 00:50:46;;;;;;;8.27;4.97;;;4.70;99.90;;;;;;5090611;28;20666;-85
2021/01/04 00:53:19;;;;;;;8.00;4.97;;;4.70;99.90;;;;;;5090777;28;20181;-81
2021/01/04 00:56:18;;;;;;;12.50;5.30;;;4.60;99.90;;;;;;5090100;28;20197;-84
2021/01/04 00:59:16;;;;;;;9.07;4.90;;;4.60;99.90;;;;;;5085512;28;20204;-84
2021/01/04 01:02:11;;;;;;;8.77;5.63;;;4.60;99.90;;;;;;5090594;28;20199;-84
2021/01/04 01:04:44;;;;;;;6.57;4.50;;;4.60;99.90;;;;;;5091006;28;20252;-86
2021/01/04 01:07:13;;;;;;;11.00;5.93;;;4.60;99.90;;;;;;5090313;28;20232;-86
2021/01/04 01:09:43;;;;;;;9.23;4.90;;;4.70;99.90;;;;;;5090315;28;20215;-81
2021/01/04 01:12:39;;;;;;;4.77;4.03;;;4.70;99.90;;;;;;5090213;28;20204;-86
2021/01/04 01:15:19;;;;;;;7.03;4.30;;;4.60;99.90;;;;;;5089444;28;20592;-83
2021/01/04 01:18:09;;;;;;;9.00;4.33;;;4.60;99.90;;;;;;5090718;28;20196;-80
2021/01/04 01:20:38;;;;;;;7.20;4.97;;;4.60;99.90;;;;;;5091305;28;20271;-85
2021/01/04 01:23:07;;;;;;;6.73;4.67;;;4.60;99.90;;;;;;5089758;28;20197;-84
2021/01/04 01:25:42;;;;;;;12.30;5.07;;;4.60;99.90;;;;;;5088900;28;20192;-80
2021/01/04 01:28:58;;;;;;;8.90;4.77;;;4.60;99.90;;;;;;5090201;28;20230;-87
2021/01/04 01:32:07;;;;;;;7.73;4.80;;;4.60;99.90;;;;;;5090164;28;20234;-82
2021/01/04 01:34:48;;;;;;;8.60;4.70;;;4.50;99.90;;;;;;5090913;28;20195;-87
2021/01/04 01:37:44;;;;;;;8.87;4.97;;;4.50;99.90;;;;;;5089938;28;20220;-85
2021/01/04 01:40:27;;;;;;;12.20;5.37;;;4.60;99.90;;;;;;5090815;28;20201;-86
2021/01/04 01:43:22;;;;;;;8.57;5.00;;;4.50;99.90;;;;;;5090656;28;20564;-86
2021/01/04 01:45:54;;;;;;;7.90;4.47;;;4.50;99.90;;;;;;5090048;28;20236;-86
2021/01/04 01:48:34;;;;;;;9.77;4.40;;;4.50;99.90;;;;;;5089292;28;20197;-84
2021/01/04 01:51:04;;;;;;;10.30;4.80;;;4.50;99.90;;;;;;5090517;28;20203;-86
2021/01/04 01:53:44;;;;;;;9.07;4.93;;;4.50;99.90;;;;;;5090328;28;20208;-84
2021/01/04 01:56:17;;;;;;;8.60;4.77;;;4.50;99.90;;;;;;5088866;28;20185;-83
2021/01/04 01:59:36;;;;;;;8.47;4.80;;;4.50;99.90;;;;;;5088097;28;20200;-85
2021/01/04 02:02:06;;;;;;;8.27;4.43;;;4.50;99.90;;;;;;5086623;28;20211;-88
2021/01/04 02:04:47;;;;;;;7.23;4.27;;;4.40;99.90;;;;;;5090189;28;20545;-87
2021/01/04 02:07:18;;;;;;;7.50;4.60;;;4.40;99.90;;;;;;5090117;28;20282;-83
2021/01/04 02:09:49;;;;;;;5.30;4.17;;;4.40;99.90;;;;;;5090379;28;20927;-86
2021/01/04 02:12:24;;;;;;;9.13;4.77;;;4.40;99.90;;;;;;5090077;28;20224;-86
2021/01/04 02:14:59;;;;;;;9.77;4.20;;;4.40;99.90;;;;;;5090324;28;20532;-84
2021/01/04 02:17:53;;;;;;;6.57;4.80;;;4.40;99.90;;;;;;5090547;28;20250;-83
2021/01/04 02:20:49;;;;;;;8.77;4.47;;;4.40;99.90;;;;;;5066622;28;20204;-87
2021/01/04 02:23:35;;;;;;;9.53;4.50;;;4.40;99.90;;;;;;5068920;28;20256;-84
2021/01/04 02:26:10;;;;;;;5.73;4.60;;;4.40;99.90;;;;;;5069797;28;20213;-86
2021/01/04 02:28:49;;;;;;;7.90;4.30;;;4.40;99.90;;;;;;5070829;28;20197;-84
2021/01/04 02:31:15;;;;;;;9.93;5.00;;;4.40;99.90;;;;;;5069418;28;20665;-87
2021/01/04 02:33:41;;;;;;;10.63;5.30;;;4.40;99.90;;;;;;5070180;28;20205;-89
2021/01/04 02:36:08;;;;;;;7.50;4.90;;;4.40;99.90;;;;;;5070367;28;20224;-87
2021/01/04 02:38:42;;;;;;;8.07;5.17;;;4.40;99.90;;;;;;5070438;28;20212;-89
2021/01/04 02:41:11;;;;;;;8.13;4.73;;;4.40;99.90;;;;;;5071269;28;20197;-88
2021/01/04 02:43:38;;;;;;;9.33;5.50;;;4.40;99.90;;;;;;5070308;28;20220;-85
2021/01/04 02:46:08;;;;;;;8.47;5.20;;;4.40;99.90;;;;;;5074579;28;20286;-88
2021/01/04 02:48:47;;;;;;;9.10;5.30;;;4.40;99.90;;;;;;5073790;28;20186;-87
2021/01/04 02:51:18;;;;;;;9.50;5.57;;;4.50;99.90;;;;;;5075007;28;20200;-90
2021/01/04 02:54:12;;;;;;;11.10;5.73;;;4.40;99.90;;;;;;5075205;28;20511;-83
2021/01/04 02:56:53;;;;;;;7.07;4.97;;;4.40;99.90;;;;;;5073546;28;20202;-87
2021/01/04 02:59:37;;;;;;;7.40;4.83;;;4.40;99.90;;;;;;5075312;28;20193;-88
2021/01/04 03:02:07;;;;;;;9.70;5.73;;;4.40;99.90;;;;;;5075312;28;20254;-89
2021/01/04 03:04:34;;;;;;;8.80;5.53;;;4.30;99.90;;;;;;5075611;28;20518;-87
2021/01/04 03:07:06;;;;;;;9.27;5.37;;;4.30;99.90;;;;;;5074819;28;20563;-89
2021/01/04 03:09:34;;;;;;;8.80;5.63;;;4.30;99.90;;;;;;5074388;28;20621;-86
2021/01/04 03:12:06;;;;;;;9.47;5.53;;;4.40;99.90;;;;;;5080599;28;20201;-89
2021/01/04 03:14:58;;;;;;;7.70;5.13;;;4.40;99.90;;;;;;5079210;28;20189;-86
2021/01/04 03:17:35;;;;;;;10.63;5.40;;;4.40;99.90;;;;;;5080372;28;20186;-86
2021/01/04 03:20:07;;;;;;;8.90;5.00;;;4.40;99.90;;;;;;5076734;28;20208;-86
2021/01/04 03:22:34;;;;;;;14.03;5.80;;;4.40;99.90;;;;;;5088324;28;20208;-86
2021/01/04 03:25:00;;;;;;;8.73;5.57;;;4.30;99.90;;;;;;5093466;28;20192;-86
2021/01/04 03:27:32;;;;;;;9.20;5.23;;;4.30;99.90;;;;;;5093604;28;20956;-86
2021/01/04 03:32:25;;;;;;;7.83;5.53;;;4.30;99.90;;;;;;5077858;22;20241;-85
2021/01/04 03:34:51;;;;;;;8.53;5.20;;;4.40;99.90;;;;;;5071497;28;20235;-86
2021/01/04 03:37:17;;;;;;;9.23;5.20;;;4.40;99.90;;;;;;5066218;28;20227;-87
2021/01/04 03:39:44;;;;;;;7.77;5.20;;;4.30;99.90;;;;;;5066650;28;20213;-86
2021/01/04 03:42:12;;;;;;;7.20;4.80;;;4.30;99.90;;;;;;5066108;28;20267;-88
2021/01/04 03:44:41;;;;;;;10.60;5.20;;;4.30;99.90;;;;;;5070784;28;20244;-90
2021/01/04 03:47:07;;;;;;;9.00;4.80;;;4.30;99.90;;;;;;5071233;28;20245;-90
2021/01/04 03:49:34;;;;;;;7.60;4.87;;;4.40;99.90;;;;;;5072935;28;20205;-89
2021/01/04 03:52:01;;;;;;;10.33;5.60;;;4.30;99.90;;;;;;5072325;28;20236;-87
2021/01/04 03:54:27;;;;;;;10.07;5.07;;;4.30;99.90;;;;;;5072781;28;20204;-90
2021/01/04 03:56:55;;;;;;;9.27;5.40;;;4.40;99.90;;;;;;5072580;28;20274;-88
2021/01/04 03:59:22;;;;;;;9.57;5.40;;;4.40;99.90;;;;;;5072674;28;20204;-84
2021/01/04 04:01:50;;;;;;;7.83;4.73;;;4.40;99.90;;;;;;5073203;28;20204;-88
2021/01/04 04:04:17;;;;;;;10.23;5.53;;;4.40;99.90;;;;;;5072654;28;20201;-89
2021/01/04 04:06:44;;;;;;;8.63;5.50;;;4.40;99.90;;;;;;5072614;28;20279;-89
2021/01/04 04:09:11;;;;;;;10.70;5.67;;;4.40;99.90;;;;;;5072443;28;20260;-90
2021/01/04 04:11:37;;;;;;;6.77;4.67;;;4.40;99.90;;;;;;5072310;28;20687;-89
2021/01/04 04:14:04;;;;;;;10.77;5.13;;;4.30;99.90;;;;;;5072456;28;20225;-89
2021/01/04 04:16:30;;;;;;;10.47;4.70;;;4.30;99.90;;;;;;5072093;28;20214;-89
2021/01/04 04:18:58;;;;;;;7.90;4.63;;;4.30;99.90;;;;;;5071801;28;20581;-88
2021/01/04 04:21:24;;;;;;;7.03;4.37;;;4.20;99.90;;;;;;5072080;28;20277;-87
2021/01/04 04:23:51;;;;;;;8.40;4.80;;;4.30;99.90;;;;;;5072325;28;20564;-89
2021/01/04 04:26:18;;;;;;;12.10;5.17;;;4.30;99.90;;;;;;5071834;28;20278;-91
2021/01/04 04:28:45;;;;;;;9.13;4.83;;;4.30;99.90;;;;;;5072994;28;20205;-86
2021/01/04 04:31:13;;;;;;;8.53;6.03;;;4.30;99.90;;;;;;5072227;28;20271;-90
2021/01/04 04:33:40;;;;;;;9.60;5.87;;;4.30;99.90;;;;;;5072088;28;20604;-87
2021/01/04 04:36:08;;;;;;;11.93;5.70;;;4.30;99.90;;;;;;5070605;28;20275;-87
2021/01/04 04:38:35;;;;;;;5.87;4.63;;;4.30;99.90;;;;;;5072807;28;20197;-87
2021/01/04 04:41:02;;;;;;;11.80;5.50;;;4.30;99.90;;;;;;5071532;28;20507;-87
2021/01/04 04:43:35;;;;;;;9.90;5.67;;;4.20;99.90;;;;;;5072282;28;20205;-90
2021/01/04 04:46:06;;;;;;;9.30;5.43;;;4.30;99.90;;;;;;5071517;28;20197;-89
2021/01/04 04:48:46;;;;;;;8.40;5.10;;;4.30;99.90;;;;;;5071570;28;20491;-86
2021/01/04 04:51:33;;;;;;;10.93;5.97;;;4.20;99.90;;;;;;5071511;28;20246;-83
2021/01/04 04:54:27;;;;;;;10.63;5.80;;;4.20;99.90;;;;;;5070282;28;20197;-87
2021/01/04 04:57:10;;;;;;;9.03;5.57;;;4.20;99.90;;;;;;5071801;28;20221;-88
2021/01/04 04:59:46;;;;;;;11.33;5.77;;;4.20;99.90;;;;;;5071300;28;20304;-88
2021/01/04 05:02:16;;;;;;;9.33;5.93;;;4.30;99.90;;;;;;5071624;28;20208;-88
2021/01/04 05:04:58;;;;;;;8.10;5.00;;;4.20;99.90;;;;;;5070165;28;20204;-86
2021/01/04 05:07:34;;;;;;;7.80;4.83;;;4.30;99.90;;;;;;5071836;28;20219;-85
2021/01/04 05:10:04;;;;;;;9.67;5.97;;;4.30;99.90;;;;;;5070171;28;20200;-90
2021/01/04 05:12:38;;;;;;;9.67;5.97;;;4.20;99.90;;;;;;5071011;28;20198;-88
2021/01/04 05:15:14;;;;;;;7.77;5.43;;;4.20;99.90;;;;;;5070952;28;20201;-89
2021/01/04 05:18:19;;;;;;;6.50;4.73;;;4.30;99.90;;;;;;5071004;28;20189;-84
2021/01/04 05:21:46;;;;;;;8.57;5.60;;;4.30;99.90;;;;;;5071568;28;20283;-86
2021/01/04 05:24:36;;;;;;;9.67;5.87;;;4.30;99.90;;;;;;5049023;28;20213;-88
2021/01/04 05:27:37;;;;;;;14.23;6.17;;;4.30;99.90;;;;;;5048459;28;20221;-88
2021/01/04 05:30:49;;;;;;;12.00;5.20;;;4.20;99.90;;;;;;5066907;28;20196;-88
2021/01/04 05:33:58;;;;;;;10.40;5.20;;;4.30;99.90;;;;;;4989496;28;20196;-86
2021/01/04 05:36:43;;;;;;;12.67;5.70;;;4.30;99.90;;;;;;4989091;28;20227;-87
2021/01/04 05:39:17;;;;;;;8.67;5.67;;;4.30;99.90;;;;;;5053173;28;20529;-85
2021/01/04 05:41:59;;;;;;;13.83;6.00;;;4.30;99.90;;;;;;5068864;28;20550;-88
2021/01/04 05:44:49;;;;;;;11.47;5.77;;;4.30;99.90;;;;;;5070254;28;20253;-88
2021/01/04 05:47:33;;;;;;;12.17;5.00;;;4.30;99.90;;;;;;5067430;28;20232;-87
2021/01/04 05:50:07;;;;;;;9.87;5.77;;;4.40;99.90;;;;;;5070121;28;20208;-87
2021/01/04 05:52:34;;;;;;;9.90;5.57;;;4.30;99.90;;;;;;5070562;28;20851;-87
2021/01/04 05:55:01;;;;;;;9.30;6.17;;;4.40;99.90;;;;;;5070070;28;20267;-87
2021/01/04 05:57:28;;;;;;;14.27;5.63;;;4.40;99.90;;;;;;5069668;28;20201;-87
2021/01/04 05:59:57;;;;;;;9.90;5.20;;;4.40;99.90;;;;;;5068419;28;20193;-87
2021/01/04 06:02:26;;;;;;;12.13;5.27;;;4.40;99.90;;;;;;5064770;28;20194;-86
2021/01/04 06:04:53;;;;;;;9.10;4.87;;;4.30;99.90;;;;;;5063876;28;20648;-87
2021/01/04 06:07:20;;;;;;;13.30;4.90;;;4.30;99.90;;;;;;5064335;28;20649;-86
2021/01/04 06:09:56;;;;;;;12.63;4.90;;;4.40;99.90;;;;;;5065824;28;20212;-86
2021/01/04 06:12:35;;;;;;;9.57;4.90;;;4.40;99.90;;;;;;5069752;28;20186;-87
2021/01/04 06:15:01;;;;;;;7.50;4.27;;;4.40;99.90;;;;;;5069435;28;20229;-89
2021/01/04 06:17:32;;;;;;;10.23;4.90;;;4.40;99.90;;;;;;5068975;28;20201;-87
2021/01/04 06:20:03;;;;;;;12.60;5.23;;;4.40;99.90;;;;;;5069967;28;20243;-88
2021/01/04 06:22:32;;;;;;;11.67;4.90;;;4.40;99.90;;;;;;5070088;28;20247;-87
2021/01/04 06:25:00;;;;;;;10.00;4.63;;;4.40;99.90;;;;;;5070143;28;20276;-86
2021/01/04 06:27:35;;;;;;;6.47;4.47;;;4.40;99.90;;;;;;5065927;28;20308;-88
2021/01/04 06:30:25;;;;;;;13.97;5.20;;;4.40;99.90;;;;;;5063905;28;20209;-87
2021/01/04 06:32:52;;;;;;;9.10;4.27;;;4.40;99.90;;;;;;5063243;28;20624;-87
2021/01/04 06:35:24;;;;;;;10.27;4.83;;;4.40;99.90;;;;;;5063163;28;20589;-88
2021/01/04 06:38:02;;;;;;;11.40;5.47;;;4.30;99.90;;;;;;5068896;28;20193;-84
2021/01/04 06:40:34;;;;;;;7.73;4.43;;;4.40;99.90;;;;;;5069366;28;20204;-87
2021/01/04 06:43:17;;;;;;;8.37;4.63;;;4.40;99.90;;;;;;5069844;28;20212;-85
2021/01/04 06:45:56;;;;;;;10.67;4.50;;;4.40;99.90;;;;;;5069518;28;20204;-85
2021/01/04 06:48:32;;;;;;;11.00;5.10;;;4.40;99.90;;;;;;5070003;28;20193;-85
2021/01/04 06:51:22;;;;;;;7.20;4.30;;;4.40;99.90;;;;;;5068925;28;20631;-87
2021/01/04 06:54:25;;;;;;;7.43;3.90;;;4.40;99.90;;;;;;5045120;28;20949;-88
2021/01/04 06:57:29;;;;;;;7.33;4.23;;;4.40;99.90;;;;;;5069613;28;20193;-86
2021/01/04 07:00:28;;;;;;;9.90;5.07;;;4.40;99.90;;;;;;5069290;28;20197;-83
2021/01/04 07:03:22;;;;;;;7.87;3.97;;;4.40;99.90;;;;;;5069327;28;20251;-89
2021/01/04 07:06:11;;;;;;;5.10;4.10;;;4.50;99.90;;;;;;5069970;28;20201;-83
2021/01/04 07:09:10;;;;;;;9.97;4.50;;;4.50;99.90;;;;;;5069479;28;20201;-88
2021/01/04 07:11:42;;;;;;;8.97;4.00;;;4.50;99.90;;;;;;5070205;28;20205;-87
2021/01/04 07:14:25;;;;;;;7.23;4.17;;;4.40;99.90;;;;;;5069175;28;20205;-84
2021/01/04 07:17:25;;;;;;;9.13;3.87;;;4.50;99.90;;;;;;5069687;28;20190;-83
2021/01/04 07:20:14;;;;;;;6.37;3.80;;;4.40;99.90;;;;;;5044367;28;20600;-86
2021/01/04 07:22:52;;;;;;;10.67;4.20;;;4.50;99.90;;;;;;5069717;28;20217;-83
2021/01/04 07:25:29;;;;;;;9.17;4.43;;;4.50;99.90;;;;;;5069071;28;20193;-88
2021/01/04 07:28:03;;;;;;;9.10;4.43;;;4.40;99.90;;;;;;5071455;28;20553;-83
2021/01/04 07:30:51;;;;;;;6.30;3.80;;;4.40;99.90;;;;;;5073463;28;20237;-86
2021/01/04 07:33:35;;;;;;;8.50;3.73;;;4.40;99.90;;;;;;5073182;28;20189;-86
2021/01/04 07:36:08;;;;;;;9.67;3.97;;;4.40;99.90;;;;;;5072574;28;20225;-84
2021/01/04 07:38:51;;;;;;;9.10;4.57;;;4.40;99.90;;;;;;5073487;28;20209;-84
2021/01/04 07:41:31;;;;;;;7.20;4.00;;;4.30;99.90;;;;;;5072637;28;20205;-87
2021/01/04 07:44:14;;;;;;;6.57;3.83;;;4.40;99.90;;;;;;5073215;28;20181;-84
2021/01/04 07:47:06;;;;;;;7.60;4.27;;;4.30;99.90;;;;;;5072370;28;20293;-88
2021/01/04 07:50:07;;;;;;;8.17;4.90;;;4.30;99.90;;;;;;5073904;28;20204;-85
2021/01/04 07:53:05;;;;;;;8.80;5.10;;;4.40;99.90;;;;;;5071291;28;20254;-78
2021/01/04 07:56:20;;;;;;;7.43;4.23;;;4.30;99.90;;;;;;5071677;28;20188;-82
2021/01/04 07:59:08;;;;;;;7.60;4.23;;;4.40;99.90;;;;;;5070918;28;20266;-83
2021/01/04 08:02:08;;;;;;;7.27;4.87;;;4.40;99.90;;;;;;5071147;28;20201;-83
2021/01/04 08:05:13;;;;;;;6.60;4.00;;;4.30;99.90;;;;;;5071367;28;20604;-81
2021/01/04 08:08:17;;;;;;;7.97;4.30;;;4.30;99.90;;;;;;5071927;28;20232;-82
2021/01/04 08:11:09;;;;;;;6.40;3.90;;;4.30;99.90;;;;;;5071148;28;20205;-84
2021/01/04 08:14:16;;;;;;;9.07;3.97;;;4.40;99.90;;;;;;5071620;28;20189;-83
2021/01/04 08:16:47;;;;;;;8.10;3.53;;;4.30;99.90;;;;;;5070872;28;20250;-81
2021/01/04 08:19:15;;;;;;;5.90;3.73;;;4.30;99.90;;;;;;5061182;28;20208;-83
2021/01/04 08:21:55;;;;;;;6.10;3.47;;;4.30;99.90;;;;;;5070775;28;20201;-80
2021/01/04 08:24:30;;;;;;;8.10;4.37;;;4.30;99.90;;;;;;5068092;28;20217;-83
2021/01/04 08:27:11;;;;;;;6.77;3.37;;;4.30;99.90;;;;;;5067370;28;20235;-81
2021/01/04 08:29:48;;;;;;;7.13;3.30;;;4.30;99.90;;;;;;5070345;28;20232;-85
2021/01/04 08:32:20;;;;;;;4.47;3.40;;;4.30;99.90;;;;;;5064508;28;20256;-83
2021/01/04 08:51:05;;;;;;;7.87;3.80;;;4.30;99.90;;;;;;5836674;22;20285;-79
2021/01/04 08:53:31;;;;;;;7.13;3.67;;;4.30;99.90;;;;;;5089093;28;20252;-81
2021/01/04 08:56:06;;;;;;;4.43;3.53;;;4.30;99.90;;;;;;5089310;28;20234;-80
2021/01/04 08:58:37;;;;;;;6.43;3.87;;;4.30;99.90;;;;;;5089212;28;20607;-84
2021/01/04 09:01:16;;;;;;;5.03;3.97;;;4.30;99.90;;;;;;5089390;28;20215;-85
2021/01/04 09:03:43;;;;;;;8.83;3.93;;;4.30;99.90;;;;;;5090344;28;20209;-83
2021/01/04 09:06:26;;;;;;;7.53;3.63;;;4.20;99.90;;;;;;5089545;28;20266;-82
2021/01/04 09:08:56;;;;;;;6.20;3.73;;;4.30;99.90;;;;;;5090485;28;20192;-85
2021/01/04 09:11:23;;;;;;;5.57;3.63;;;4.30;99.90;;;;;;5090960;28;20204;-84
2021/01/04 09:13:49;;;;;;;6.33;3.77;;;4.30;99.90;;;;;;5090018;28;20204;-84
2021/01/04 09:16:27;;;;;;;6.37;3.70;;;4.30;99.90;;;;;;5090036;28;20620;-83
2021/01/04 09:19:07;;;;;;;6.80;3.77;;;4.30;99.90;;;;;;5090217;28;20238;-83
2021/01/04 09:21:37;;;;;;;7.00;3.60;;;4.40;99.90;;;;;;5089606;28;20189;-84
2021/01/04 09:24:32;;;;;;;5.33;3.30;;;4.40;99.90;;;;;;5088437;28;20201;-83
2021/01/04 09:27:03;;;;;;;3.80;3.17;;;4.40;99.90;;;;;;5088439;28;20216;-82
2021/01/04 09:29:31;;;;;;;7.40;3.13;;;4.40;99.90;;;;;;5089232;28;20522;-84
2021/01/04 09:32:00;;;;;;;4.43;2.73;;;4.40;99.90;;;;;;5088838;28;20221;-83
2021/01/04 09:34:30;;;;;;;5.90;2.97;;;4.40;99.90;;;;;;5088729;28;20215;-81
2021/01/04 09:37:03;;;;;;;4.67;3.03;;;4.50;99.90;;;;;;5090008;28;20227;-86
2021/01/04 09:39:32;;;;;;;4.70;2.90;;;4.50;99.90;;;;;;5081585;28;20199;-83
2021/01/04 09:42:00;;;;;;;7.73;3.10;;;4.50;99.90;;;;;;5069273;28;20212;-85
2021/01/04 09:44:26;;;;;;;6.70;3.40;;;4.50;99.90;;;;;;5069799;28;20219;-81
2021/01/04 09:46:57;;;;;;;7.93;3.30;;;4.50;99.90;;;;;;5068465;28;20535;-83
2021/01/04 09:49:29;;;;;;;6.90;3.20;;;4.50;99.90;;;;;;5069025;28;20657;-82
2021/01/04 09:52:08;;;;;;;4.03;2.90;;;4.50;99.90;;;;;;5069204;28;20236;-84
2021/01/04 09:54:50;;;;;;;5.30;3.60;;;4.50;99.90;;;;;;5069633;28;20267;-83
2021/01/04 09:57:19;;;;;;;5.60;2.77;;;4.40;99.90;;;;;;5069414;28;20251;-85
2021/01/04 09:59:46;;;;;;;6.67;3.07;;;4.50;99.90;;;;;;5070204;28;20209;-86
2021/01/04 10:02:22;;;;;;;4.83;3.47;;;4.40;99.90;;;;;;5069791;28;20278;-88
2021/01/04 10:04:49;;;;;;;4.97;2.70;;;4.40;99.90;;;;;;5070229;28;20196;-84
2021/01/04 10:07:21;;;;;;;5.63;3.00;;;4.30;99.90;;;;;;5069508;28;20302;-83
2021/01/04 10:09:51;;;;;;;4.60;2.90;;;4.30;99.90;;;;;;5070043;28;20189;-87
2021/01/04 10:12:20;;;;;;;5.23;2.70;;;4.30;99.90;;;;;;5070154;28;20216;-83
2021/01/04 10:14:50;;;;;;;5.07;3.30;;;4.30;99.90;;;;;;5068717;28;20209;-84
2021/01/04 10:17:17;;;;;;;3.57;2.97;;;4.30;99.90;;;;;;5068634;28;20879;-85
2021/01/04 10:19:50;;;;;;;6.43;3.17;;;4.30;99.90;;;;;;5069355;28;20239;-87
2021/01/04 10:22:23;;;;;;;5.83;3.40;;;4.30;99.90;;;;;;5067582;28;20259;-78
2021/01/04 10:24:54;;;;;;;3.97;2.47;;;4.30;99.90;;;;;;5064464;28;20224;-88
2021/01/04 10:27:23;;;;;;;4.33;2.90;;;4.30;99.90;;;;;;5068503;28;20227;-86
2021/01/04 10:29:52;;;;;;;3.97;2.60;;;4.30;99.90;;;;;;5069412;28;20267;-87
2021/01/04 10:32:22;;;;;;;4.87;2.90;;;4.20;99.90;;;;;;5067608;28;20225;-84
2021/01/04 10:34:49;;;;;;;4.57;2.80;;;4.20;99.90;;;;;;5069086;28;20208;-85
2021/01/04 10:37:32;;;;;;;4.47;2.70;;;4.20;99.90;;;;;;5068948;28;20209;-85
2021/01/04 10:40:00;;;;;;;7.00;3.30;;;4.20;99.90;;;;;;5087797;28;20216;-84
2021/01/04 10:42:28;;;;;;;3.63;3.10;;;4.20;99.90;;;;;;5086856;28;20216;-83
2021/01/04 10:45:05;;;;;;;3.03;2.43;;;4.20;99.90;;;;;;5086309;28;20212;-83
2021/01/04 10:47:44;;;;;;;3.80;2.53;;;4.20;99.90;;;;;;5078306;28;20232;-87
2021/01/04 10:50:18;;;;;;;4.50;2.50;;;4.10;99.90;;;;;;5085225;28;20708;-83
2021/01/04 10:52:58;;;;;;;3.10;2.27;;;4.20;99.90;;;;;;5085195;28;20760;-83
2021/01/04 10:55:27;;;;;;;3.93;2.97;;;4.10;99.90;;;;;;5086584;28;20209;-81
2021/01/04 10:58:13;;;;;;;3.33;2.60;;;4.10;99.90;;;;;;5087608;28;20207;-85
2021/01/04 11:00:49;;;;;;;5.77;2.90;;;4.10;99.90;;;;;;5086606;28;20221;-89
2021/01/04 11:03:17;;;;;;;4.33;2.63;;;4.10;99.90;;;;;;5089402;28;20204;-83
2021/01/04 11:05:48;;;;;;;5.23;2.70;;;4.10;99.90;;;;;;5091298;28;20545;-85
2021/01/04 11:08:26;;;;;;;3.90;2.83;;;4.10;99.90;;;;;;5091683;28;20325;-86
2021/01/04 11:10:55;;;;;;;6.23;3.00;;;4.10;99.90;;;;;;5084954;28;20196;-83
2021/01/04 11:13:27;;;;;;;4.53;2.60;;;4.10;99.90;;;;;;5089761;28;20208;-85
2021/01/04 11:16:12;;;;;;;3.07;2.43;;;4.10;99.90;;;;;;5084719;28;20209;-86
2021/01/04 11:18:59;;;;;;;4.20;2.57;;;4.10;99.90;;;;;;5092068;28;20204;-83
2021/01/04 11:21:34;;;;;;;7.43;2.50;;;4.20;99.90;;;;;;5087716;28;20209;-82
2021/01/04 11:24:02;;;;;;;4.73;2.77;;;4.20;99.90;;;;;;5086141;28;20204;-83
2021/01/04 11:26:28;;;;;;;3.63;2.70;;;4.30;99.90;;;;;;5089180;28;20201;-84
2021/01/04 11:28:54;;;;;;;4.07;2.60;;;4.30;99.90;;;;;;5091657;28;20193;-87
2021/01/04 11:31:20;;;;;;;5.03;2.30;;;4.30;99.90;;;;;;5089950;28;20307;-86
2021/01/04 11:33:47;;;;;;;4.43;2.37;;;4.30;99.90;;;;;;5090245;28;20272;-83
2021/01/04 11:36:13;;;;;;;4.53;2.60;;;4.30;99.90;;;;;;5091902;28;20213;-85
2021/01/04 11:38:39;;;;;;;4.60;2.70;;;4.30;99.90;;;;;;5091712;28;20222;-87
2021/01/04 11:41:07;;;;;;;4.30;2.30;;;4.30;99.90;;;;;;5091285;28;20212;-84
2021/01/04 11:43:34;;;;;;;3.50;2.57;;;4.30;99.90;;;;;;5091415;28;20208;-84
2021/01/04 11:46:00;;;;;;;3.67;2.60;;;4.20;99.90;;;;;;5083295;28;20870;-85
2021/01/04 11:48:26;;;;;;;3.10;2.43;;;4.20;99.90;;;;;;5091609;28;20229;-87
2021/01/04 11:50:53;;;;;;;3.03;2.03;;;4.20;99.90;;;;;;5092334;28;20614;-85
2021/01/04 11:53:22;;;;;;;4.47;2.80;;;4.10;99.90;;;;;;5092252;28;20200;-86
2021/01/04 11:55:48;;;;;;;4.47;2.30;;;4.20;99.90;;;;;;5092305;28;20190;-86
2021/01/04 11:58:15;;;;;;;2.87;2.40;;;4.20;99.90;;;;;;5089599;28;20192;-83
2021/01/04 12:00:41;;;;;;;4.27;2.27;;;4.10;99.90;;;;;;5088492;28;20192;-85
2021/01/04 12:03:09;;;;;;;2.43;2.20;;;4.10;99.90;;;;;;5090189;28;20254;-82
2021/01/04 12:05:36;;;;;;;3.57;2.60;;;4.20;99.90;;;;;;5089705;28;20287;-82
2021/01/04 12:08:02;;;;;;;2.40;2.20;;;4.20;99.90;;;;;;5089904;28;20212;-83
2021/01/04 12:10:29;;;;;;;5.43;3.20;;;4.20;99.90;;;;;;5090095;28;20203;-81
2021/01/04 12:12:56;;;;;;;3.07;2.17;;;4.20;99.90;;;;;;5088211;28;20207;-82
2021/01/04 12:15:24;;;;;;;2.20;2.00;;;4.20;99.90;;;;;;5089920;28;20205;-84
2021/01/04 12:17:50;;;;;;;2.57;2.07;;;4.10;99.90;;;;;;5090348;28;20706;-82
2021/01/04 12:20:17;;;;;;;2.83;2.00;;;4.20;99.90;;;;;;5090415;28;20201;-83
2021/01/04 12:22:43;;;;;;;2.63;2.00;;;4.10;99.90;;;;;;5090436;28;20193;-83
2021/01/04 12:25:11;;;;;;;5.20;2.50;;;4.10;99.90;;;;;;5089415;28;20247;-82
2021/01/04 12:27:37;;;;;;;3.10;2.13;;;4.10;99.90;;;;;;5088746;28;20232;-83
2021/01/04 12:30:06;;;;;;;2.73;2.13;;;4.10;99.90;;;;;;5084082;28;20211;-82
2021/01/04 12:32:33;;;;;;;2.63;2.10;;;4.00;99.90;;;;;;5086150;28;20221;-82
2021/01/04 12:35:00;;;;;;;5.93;2.83;;;4.00;99.90;;;;;;5089205;28;20216;-82
2021/01/04 12:37:26;;;;;;;3.93;2.03;;;4.00;99.90;;;;;;5089560;28;20203;-81
2021/01/04 12:39:53;;;;;;;4.77;2.37;;;4.00;99.90;;;;;;5089441;28;20596;-81
2021/01/04 12:42:19;;;;;;;3.60;2.20;;;4.00;99.90;;;;;;5088310;28;20201;-81
2021/01/04 12:44:48;;;;;;;2.43;2.23;;;3.90;99.90;;;;;;5088559;28;20212;-82
2021/01/04 12:47:14;;;;;;;4.90;2.53;;;3.90;99.90;;;;;;5089589;28;20220;-81
2021/01/04 12:49:44;;;;;;;3.53;2.10;;;3.90;99.90;;;;;;5089294;28;20196;-82
2021/01/04 12:52:11;;;;;;;3.73;1.87;;;3.90;99.90;;;;;;5088751;28;20236;-82
2021/01/04 12:54:37;;;;;;;7.13;2.00;;;3.90;99.90;;;;;;5090109;28;20514;-84
2021/01/04 12:57:08;;;;;;;3.40;2.10;;;3.90;99.90;;;;;;5088176;28;20909;-84
2021/01/04 12:59:38;;;;;;;2.97;1.90;;;3.90;99.90;;;;;;5084020;28;20209;-82
2021/01/04 13:02:05;;;;;;;3.00;2.07;;;3.90;99.90;;;;;;5084665;28;20290;-90
2021/01/04 13:04:31;;;;;;;3.37;1.80;;;3.90;99.90;;;;;;5084678;28;20215;-80
2021/01/04 13:06:59;;;;;;;4.33;2.27;;;3.80;99.90;;;;;;5087983;28;20228;-82
2021/01/04 13:09:26;;;;;;;4.47;2.10;;;3.70;99.90;;;;;;5088439;28;20295;-81
2021/01/04 13:11:54;;;;;;;4.03;2.20;;;3.70;99.90;;;;;;5089678;28;20254;-84
2021/01/04 13:14:21;;;;;;;6.80;2.30;;;3.70;99.90;;;;;;5087866;28;20293;-85
2021/01/04 13:16:48;;;;;;;3.03;2.03;;;3.70;99.90;;;;;;5086912;28;20258;-83
2021/01/04 13:19:15;;;;;;;4.37;2.20;;;3.70;99.90;;;;;;5086655;28;20208;-84
2021/01/04 13:21:42;;;;;;;4.80;2.57;;;3.70;99.90;;;;;;5079152;28;20201;-82
2021/01/04 13:24:12;;;;;;;4.80;2.40;;;3.70;99.90;;;;;;5067954;28;20617;-84
2021/01/04 13:26:40;;;;;;;5.57;2.13;;;3.70;99.90;;;;;;5069505;28;20198;-85
2021/01/04 13:29:07;;;;;;;4.13;2.03;;;3.60;99.90;;;;;;5068883;28;20206;-82
2021/01/04 13:31:36;;;;;;;4.13;2.20;;;3.70;99.90;;;;;;5070226;28;20224;-84
2021/01/04 13:34:03;;;;;;;2.53;2.10;;;3.70;99.90;;;;;;5087062;28;20861;-83
2021/01/04 13:36:29;;;;;;;3.40;1.90;;;3.70;99.90;;;;;;5086562;28;20212;-83
2021/01/04 13:38:56;;;;;;;2.40;2.20;;;3.60;99.90;;;;;;5086457;28;20520;-81
2021/01/04 13:41:23;;;;;;;2.40;1.93;;;3.60;99.90;;;;;;5087624;28;20269;-82
2021/01/04 13:43:49;;;;;;;4.00;2.00;;;3.50;99.90;;;;;;5089016;28;20200;-82
2021/01/04 13:46:21;;;;;;;3.23;1.93;;;3.60;99.90;;;;;;5089093;28;20196;-83
2021/01/04 13:48:47;;;;;;;3.07;2.20;;;3.60;99.90;;;;;;5089190;28;20269;-84
2021/01/04 13:51:14;;;;;;;2.57;1.73;;;3.60;99.90;;;;;;5088615;28;20402;-84
2021/01/04 13:53:40;;;;;;;3.17;2.37;;;3.60;99.90;;;;;;5089266;28;20204;-81
2021/01/04 13:56:07;;;;;;;2.50;2.30;;;3.60;99.90;;;;;;5088784;28;20266;-84
2021/01/04 13:58:34;;;;;;;2.93;2.00;;;3.60;99.90;;;;;;5088713;28;20209;-82